Terminal Aerodrome Forecast
Issued by NWS Missoula, MT

Home | Current Version | Previous Version | Text Only | Print | Product List | Glossary On
Versions: 1 2 3 4 5 6 7 8 9 10 11 12 13 14 15
000
FTUS45 KMSO 231720
TAFMSO
TAF
KMSO 231720Z 2318/2418 00000KT P6SM SKC
     FM232300 30010G18KT P6SM FEW250
     FM240300 31005KT P6SM SKC
     FM241100 12008KT P6SM SKC=

USA.gov is the U.S. government's official web portal to all federal, state and local government web resources and services.